sensor_id;sensor_type;location;lat;lon;timestamp;pressure;altitude;pressure_sealevel;temperature;humidity
49645;BME280;36494;50.730;-1.932;2024-01-30T00:00:21;101615.95;;;9.10;100.00
49645;BME280;36494;50.730;-1.932;2024-01-30T00:02:47;101621.93;;;9.02;100.00
49645;BME280;36494;50.730;-1.932;2024-01-30T00:05:12;101638.42;;;9.04;100.00
49645;BME280;36494;50.730;-1.932;2024-01-30T00:07:37;101647.26;;;9.09;100.00
49645;BME280;36494;50.730;-1.932;2024-01-30T00:10:03;101658.54;;;9.09;100.00
49645;BME280;36494;50.730;-1.932;2024-01-30T00:12:28;101659.06;;;9.11;100.00
49645;BME280;36494;50.730;-1.932;2024-01-30T00:14:57;101652.38;;;9.12;100.00
49645;BME280;36494;50.730;-1.932;2024-01-30T00:17:19;101655.50;;;9.11;100.00
49645;BME280;36494;50.730;-1.932;2024-01-30T00:19:45;101654.91;;;9.06;100.00
49645;BME280;36494;50.730;-1.932;2024-01-30T00:22:10;101639.24;;;9.10;100.00
49645;BME280;36494;50.730;-1.932;2024-01-30T00:24:36;101634.45;;;9.05;100.00
49645;BME280;36494;50.730;-1.932;2024-01-30T00:27:02;101630.05;;;9.06;100.00
49645;BME280;36494;50.730;-1.932;2024-01-30T00:29:27;101637.32;;;9.10;100.00
49645;BME280;36494;50.730;-1.932;2024-01-30T00:31:53;101637.15;;;9.05;100.00
49645;BME280;36494;50.730;-1.932;2024-01-30T00:34:18;101651.53;;;9.06;100.00
49645;BME280;36494;50.730;-1.932;2024-01-30T00:36:43;101644.01;;;9.05;100.00
49645;BME280;36494;50.730;-1.932;2024-01-30T00:39:09;101645.18;;;8.99;100.00
49645;BME280;36494;50.730;-1.932;2024-01-30T00:41:35;101647.16;;;9.05;100.00
49645;BME280;36494;50.730;-1.932;2024-01-30T00:44:00;101649.07;;;9.03;100.00
49645;BME280;36494;50.730;-1.932;2024-01-30T00:46:26;101646.25;;;9.03;100.00
49645;BME280;36494;50.730;-1.932;2024-01-30T00:48:51;101633.48;;;9.03;100.00
49645;BME280;36494;50.730;-1.932;2024-01-30T00:51:16;101623.46;;;8.94;100.00
49645;BME280;36494;50.730;-1.932;2024-01-30T00:53:41;101620.93;;;8.99;100.00
49645;BME280;36494;50.730;-1.932;2024-01-30T00:56:07;101620.45;;;8.97;100.00
49645;BME280;36494;50.730;-1.932;2024-01-30T00:58:32;101622.50;;;9.00;100.00
49645;BME280;36494;50.730;-1.932;2024-01-30T01:00:57;101623.07;;;9.01;100.00
49645;BME280;36494;50.730;-1.932;2024-01-30T01:03:26;101615.48;;;8.98;100.00
49645;BME280;36494;50.730;-1.932;2024-01-30T01:05:48;101614.64;;;9.01;100.00
49645;BME280;36494;50.730;-1.932;2024-01-30T01:08:13;101616.22;;;9.01;100.00
49645;BME280;36494;50.730;-1.932;2024-01-30T01:10:39;101615.75;;;9.00;100.00
49645;BME280;36494;50.730;-1.932;2024-01-30T01:13:04;101621.05;;;9.05;100.00
49645;BME280;36494;50.730;-1.932;2024-01-30T01:15:31;101619.38;;;9.11;100.00
49645;BME280;36494;50.730;-1.932;2024-01-30T01:17:55;101620.91;;;9.07;100.00
49645;BME280;36494;50.730;-1.932;2024-01-30T01:20:20;101620.24;;;9.10;100.00
49645;BME280;36494;50.730;-1.932;2024-01-30T01:22:46;101618.69;;;9.13;100.00
49645;BME280;36494;50.730;-1.932;2024-01-30T01:25:11;101628.49;;;9.20;100.00
49645;BME280;36494;50.730;-1.932;2024-01-30T01:27:36;101629.15;;;9.21;100.00
49645;BME280;36494;50.730;-1.932;2024-01-30T01:30:02;101631.08;;;9.20;100.00
49645;BME280;36494;50.730;-1.932;2024-01-30T01:32:27;101635.05;;;9.24;100.00
49645;BME280;36494;50.730;-1.932;2024-01-30T01:34:53;101629.12;;;9.29;100.00
49645;BME280;36494;50.730;-1.932;2024-01-30T01:37:19;101626.11;;;9.30;100.00
49645;BME280;36494;50.730;-1.932;2024-01-30T01:39:44;101625.30;;;9.30;100.00
49645;BME280;36494;50.730;-1.932;2024-01-30T01:42:09;101623.98;;;9.30;100.00
49645;BME280;36494;50.730;-1.932;2024-01-30T01:44:35;101625.96;;;9.27;100.00
49645;BME280;36494;50.730;-1.932;2024-01-30T01:47:01;101627.65;;;9.28;100.00
49645;BME280;36494;50.730;-1.932;2024-01-30T01:49:27;101629.35;;;9.28;100.00
49645;BME280;36494;50.730;-1.932;2024-01-30T01:51:54;101635.88;;;9.35;100.00
49645;BME280;36494;50.730;-1.932;2024-01-30T01:54:18;101631.90;;;9.38;100.00
49645;BME280;36494;50.730;-1.932;2024-01-30T01:56:43;101640.83;;;9.32;100.00
49645;BME280;36494;50.730;-1.932;2024-01-30T01:59:08;101643.98;;;9.30;100.00
49645;BME280;36494;50.730;-1.932;2024-01-30T02:01:33;101651.48;;;9.30;100.00
49645;BME280;36494;50.730;-1.932;2024-01-30T02:03:59;101660.37;;;9.28;100.00
49645;BME280;36494;50.730;-1.932;2024-01-30T02:06:24;101667.56;;;9.32;100.00
49645;BME280;36494;50.730;-1.932;2024-01-30T02:08:49;101669.11;;;9.27;100.00
49645;BME280;36494;50.730;-1.932;2024-01-30T02:11:14;101676.71;;;9.32;100.00
49645;BME280;36494;50.730;-1.932;2024-01-30T02:13:41;101679.19;;;9.29;100.00
49645;BME280;36494;50.730;-1.932;2024-01-30T02:16:08;101678.32;;;9.27;100.00
49645;BME280;36494;50.730;-1.932;2024-01-30T02:18:30;101679.99;;;9.26;100.00
49645;BME280;36494;50.730;-1.932;2024-01-30T02:20:58;101684.19;;;9.31;100.00
49645;BME280;36494;50.730;-1.932;2024-01-30T02:23:23;101693.99;;;9.25;100.00
49645;BME280;36494;50.730;-1.932;2024-01-30T02:25:46;101699.46;;;9.17;100.00
49645;BME280;36494;50.730;-1.932;2024-01-30T02:28:12;101711.41;;;9.18;100.00
49645;BME280;36494;50.730;-1.932;2024-01-30T02:30:37;101711.04;;;9.12;100.00
49645;BME280;36494;50.730;-1.932;2024-01-30T02:33:03;101712.84;;;9.12;100.00
49645;BME280;36494;50.730;-1.932;2024-01-30T02:35:28;101713.43;;;9.00;100.00
49645;BME280;36494;50.730;-1.932;2024-01-30T02:37:53;101719.66;;;9.06;100.00
49645;BME280;36494;50.730;-1.932;2024-01-30T02:40:19;101717.60;;;8.95;100.00
49645;BME280;36494;50.730;-1.932;2024-01-30T02:42:44;101720.50;;;8.95;100.00
49645;BME280;36494;50.730;-1.932;2024-01-30T02:45:10;101726.53;;;8.89;100.00
49645;BME280;36494;50.730;-1.932;2024-01-30T02:47:34;101737.90;;;8.86;100.00
49645;BME280;36494;50.730;-1.932;2024-01-30T02:50:00;101739.61;;;8.82;100.00
49645;BME280;36494;50.730;-1.932;2024-01-30T02:52:28;101748.86;;;8.85;100.00
49645;BME280;36494;50.730;-1.932;2024-01-30T02:54:51;101754.15;;;8.82;100.00
49645;BME280;36494;50.730;-1.932;2024-01-30T02:57:16;101754.31;;;8.77;100.00
49645;BME280;36494;50.730;-1.932;2024-01-30T02:59:41;101753.32;;;8.88;100.00
49645;BME280;36494;50.730;-1.932;2024-01-30T03:02:06;101758.31;;;8.84;100.00
49645;BME280;36494;50.730;-1.932;2024-01-30T03:04:32;101759.49;;;8.80;100.00
49645;BME280;36494;50.730;-1.932;2024-01-30T03:06:57;101763.31;;;8.83;100.00
49645;BME280;36494;50.730;-1.932;2024-01-30T03:09:22;101765.39;;;8.93;100.00
49645;BME280;36494;50.730;-1.932;2024-01-30T03:11:48;101766.68;;;8.88;100.00
49645;BME280;36494;50.730;-1.932;2024-01-30T03:14:13;101769.73;;;8.89;100.00
49645;BME280;36494;50.730;-1.932;2024-01-30T03:16:43;101765.69;;;8.85;100.00
49645;BME280;36494;50.730;-1.932;2024-01-30T03:19:06;101775.16;;;8.87;100.00
49645;BME280;36494;50.730;-1.932;2024-01-30T03:21:29;101785.21;;;8.88;100.00
49645;BME280;36494;50.730;-1.932;2024-01-30T03:23:54;101788.01;;;8.83;100.00
49645;BME280;36494;50.730;-1.932;2024-01-30T03:26:20;101797.96;;;8.74;100.00
49645;BME280;36494;50.730;-1.932;2024-01-30T03:28:45;101801.81;;;8.62;100.00
49645;BME280;36494;50.730;-1.932;2024-01-30T03:31:12;101807.05;;;8.69;100.00
49645;BME280;36494;50.730;-1.932;2024-01-30T03:33:36;101807.71;;;8.69;100.00
49645;BME280;36494;50.730;-1.932;2024-01-30T03:36:04;101807.16;;;8.65;100.00
49645;BME280;36494;50.730;-1.932;2024-01-30T03:38:26;101809.75;;;8.73;100.00
49645;BME280;36494;50.730;-1.932;2024-01-30T03:40:52;101813.32;;;8.71;100.00
49645;BME280;36494;50.730;-1.932;2024-01-30T03:43:17;101817.97;;;8.60;100.00
49645;BME280;36494;50.730;-1.932;2024-01-30T03:45:42;101816.15;;;8.61;100.00
49645;BME280;36494;50.730;-1.932;2024-01-30T03:48:08;101819.77;;;8.60;100.00
49645;BME280;36494;50.730;-1.932;2024-01-30T03:50:33;101826.49;;;8.54;100.00
49645;BME280;36494;50.730;-1.932;2024-01-30T03:53:01;101825.92;;;8.57;100.00
49645;BME280;36494;50.730;-1.932;2024-01-30T03:55:25;101828.28;;;8.53;100.00
49645;BME280;36494;50.730;-1.932;2024-01-30T03:57:50;101839.39;;;8.41;100.00
49645;BME280;36494;50.730;-1.932;2024-01-30T04:00:16;101839.17;;;8.47;100.00
49645;BME280;36494;50.730;-1.932;2024-01-30T04:02:40;101840.59;;;8.47;100.00
49645;BME280;36494;50.730;-1.932;2024-01-30T04:05:09;101837.80;;;8.37;100.00
49645;BME280;36494;50.730;-1.932;2024-01-30T04:07:31;101839.03;;;8.31;100.00
49645;BME280;36494;50.730;-1.932;2024-01-30T04:09:56;101842.33;;;8.38;100.00
49645;BME280;36494;50.730;-1.932;2024-01-30T04:12:22;101844.18;;;8.31;100.00
49645;BME280;36494;50.730;-1.932;2024-01-30T04:14:47;101839.99;;;8.30;100.00
49645;BME280;36494;50.730;-1.932;2024-01-30T04:17:13;101848.46;;;8.27;100.00
49645;BME280;36494;50.730;-1.932;2024-01-30T04:19:38;101857.01;;;8.21;100.00
49645;BME280;36494;50.730;-1.932;2024-01-30T04:22:03;101861.42;;;8.27;100.00
49645;BME280;36494;50.730;-1.932;2024-01-30T04:24:29;101866.04;;;8.28;100.00
49645;BME280;36494;50.730;-1.932;2024-01-30T04:26:54;101872.46;;;8.21;100.00
49645;BME280;36494;50.730;-1.932;2024-01-30T04:29:23;101873.15;;;8.18;100.00
49645;BME280;36494;50.730;-1.932;2024-01-30T04:31:45;101867.29;;;8.13;100.00
49645;BME280;36494;50.730;-1.932;2024-01-30T04:34:10;101876.24;;;8.19;100.00
49645;BME280;36494;50.730;-1.932;2024-01-30T04:36:35;101884.12;;;8.07;100.00
49645;BME280;36494;50.730;-1.932;2024-01-30T04:39:01;101883.34;;;8.03;100.00
49645;BME280;36494;50.730;-1.932;2024-01-30T04:41:26;101877.27;;;8.07;100.00
49645;BME280;36494;50.730;-1.932;2024-01-30T04:43:51;101877.45;;;8.06;100.00
49645;BME280;36494;50.730;-1.932;2024-01-30T04:46:17;101888.05;;;8.12;100.00
49645;BME280;36494;50.730;-1.932;2024-01-30T04:48:42;101899.66;;;8.04;100.00
49645;BME280;36494;50.730;-1.932;2024-01-30T04:51:08;101904.63;;;8.04;100.00
49645;BME280;36494;50.730;-1.932;2024-01-30T04:53:33;101893.23;;;8.12;100.00
49645;BME280;36494;50.730;-1.932;2024-01-30T04:55:58;101889.96;;;8.00;100.00
49645;BME280;36494;50.730;-1.932;2024-01-30T04:58:24;101888.47;;;8.01;100.00
49645;BME280;36494;50.730;-1.932;2024-01-30T05:00:49;101894.83;;;8.02;100.00
49645;BME280;36494;50.730;-1.932;2024-01-30T05:03:14;101889.17;;;7.96;100.00
49645;BME280;36494;50.730;-1.932;2024-01-30T05:05:41;101898.90;;;8.01;100.00
49645;BME280;36494;50.730;-1.932;2024-01-30T05:08:06;101906.03;;;7.89;100.00
49645;BME280;36494;50.730;-1.932;2024-01-30T05:10:30;101915.64;;;7.86;100.00
49645;BME280;36494;50.730;-1.932;2024-01-30T05:12:56;101918.22;;;7.85;100.00
49645;BME280;36494;50.730;-1.932;2024-01-30T05:15:21;101927.58;;;7.89;100.00
49645;BME280;36494;50.730;-1.932;2024-01-30T05:17:50;101934.50;;;7.78;100.00
49645;BME280;36494;50.730;-1.932;2024-01-30T05:20:13;101942.00;;;7.84;100.00
49645;BME280;36494;50.730;-1.932;2024-01-30T05:22:38;101945.74;;;7.77;100.00
49645;BME280;36494;50.730;-1.932;2024-01-30T05:25:04;101948.40;;;7.71;100.00
49645;BME280;36494;50.730;-1.932;2024-01-30T05:27:28;101951.95;;;7.73;100.00
49645;BME280;36494;50.730;-1.932;2024-01-30T05:29:55;101949.91;;;7.80;100.00
49645;BME280;36494;50.730;-1.932;2024-01-30T05:32:19;101942.03;;;7.80;100.00
49645;BME280;36494;50.730;-1.932;2024-01-30T05:34:45;101946.59;;;7.83;100.00
49645;BME280;36494;50.730;-1.932;2024-01-30T05:37:10;101957.58;;;7.78;100.00
49645;BME280;36494;50.730;-1.932;2024-01-30T05:39:35;101963.45;;;7.73;100.00
49645;BME280;36494;50.730;-1.932;2024-01-30T05:42:01;101962.38;;;7.67;100.00
49645;BME280;36494;50.730;-1.932;2024-01-30T05:44:26;101969.54;;;7.74;100.00
49645;BME280;36494;50.730;-1.932;2024-01-30T05:46:51;101969.37;;;7.69;100.00
49645;BME280;36494;50.730;-1.932;2024-01-30T05:49:17;101973.49;;;7.68;100.00
49645;BME280;36494;50.730;-1.932;2024-01-30T05:51:42;101978.34;;;7.65;100.00
49645;BME280;36494;50.730;-1.932;2024-01-30T05:54:07;101981.47;;;7.76;100.00
49645;BME280;36494;50.730;-1.932;2024-01-30T05:56:33;101986.32;;;7.75;100.00
49645;BME280;36494;50.730;-1.932;2024-01-30T05:58:58;101984.77;;;7.68;100.00
49645;BME280;36494;50.730;-1.932;2024-01-30T06:01:23;101988.66;;;7.78;100.00
49645;BME280;36494;50.730;-1.932;2024-01-30T06:03:50;101994.71;;;7.74;100.00
49645;BME280;36494;50.730;-1.932;2024-01-30T06:06:14;102001.12;;;7.79;100.00
49645;BME280;36494;50.730;-1.932;2024-01-30T06:08:40;102003.84;;;7.73;100.00
49645;BME280;36494;50.730;-1.932;2024-01-30T06:11:05;102007.15;;;7.75;100.00
49645;BME280;36494;50.730;-1.932;2024-01-30T06:13:30;102007.83;;;7.68;100.00
49645;BME280;36494;50.730;-1.932;2024-01-30T06:15:56;102009.85;;;7.75;100.00
49645;BME280;36494;50.730;-1.932;2024-01-30T06:18:21;102018.87;;;7.74;100.00
49645;BME280;36494;50.730;-1.932;2024-01-30T06:20:47;102024.55;;;7.68;100.00
49645;BME280;36494;50.730;-1.932;2024-01-30T06:23:12;102027.06;;;7.69;100.00
49645;BME280;36494;50.730;-1.932;2024-01-30T06:25:37;102029.91;;;7.72;100.00
49645;BME280;36494;50.730;-1.932;2024-01-30T06:28:03;102043.00;;;7.72;100.00
49645;BME280;36494;50.730;-1.932;2024-01-30T06:30:29;102045.69;;;7.80;100.00
49645;BME280;36494;50.730;-1.932;2024-01-30T06:32:54;102051.72;;;7.76;100.00
49645;BME280;36494;50.730;-1.932;2024-01-30T06:35:19;102053.32;;;7.69;100.00
49645;BME280;36494;50.730;-1.932;2024-01-30T06:37:44;102056.43;;;7.73;100.00
49645;BME280;36494;50.730;-1.932;2024-01-30T06:40:10;102059.55;;;7.79;100.00
49645;BME280;36494;50.730;-1.932;2024-01-30T06:42:35;102064.66;;;7.80;100.00
49645;BME280;36494;50.730;-1.932;2024-01-30T06:45:00;102067.22;;;7.78;100.00
49645;BME280;36494;50.730;-1.932;2024-01-30T06:47:25;102076.34;;;7.76;100.00
49645;BME280;36494;50.730;-1.932;2024-01-30T06:49:50;102086.21;;;7.74;100.00
49645;BME280;36494;50.730;-1.932;2024-01-30T06:52:16;102086.17;;;7.65;100.00
49645;BME280;36494;50.730;-1.932;2024-01-30T06:54:41;102093.84;;;7.68;100.00
49645;BME280;36494;50.730;-1.932;2024-01-30T06:57:06;102095.68;;;7.75;100.00
49645;BME280;36494;50.730;-1.932;2024-01-30T06:59:32;102088.94;;;7.69;100.00
49645;BME280;36494;50.730;-1.932;2024-01-30T07:01:57;102094.01;;;7.71;100.00
49645;BME280;36494;50.730;-1.932;2024-01-30T07:04:22;102097.22;;;7.77;100.00
49645;BME280;36494;50.730;-1.932;2024-01-30T07:06:48;102103.77;;;7.70;100.00
49645;BME280;36494;50.730;-1.932;2024-01-30T07:09:13;102110.19;;;7.61;100.00
49645;BME280;36494;50.730;-1.932;2024-01-30T07:11:38;102116.58;;;7.62;100.00
49645;BME280;36494;50.730;-1.932;2024-01-30T07:14:03;102117.64;;;7.59;100.00
49645;BME280;36494;50.730;-1.932;2024-01-30T07:16:28;102118.81;;;7.56;100.00
49645;BME280;36494;50.730;-1.932;2024-01-30T07:18:55;102125.76;;;7.57;100.00
49645;BME280;36494;50.730;-1.932;2024-01-30T07:21:19;102127.49;;;7.57;100.00
49645;BME280;36494;50.730;-1.932;2024-01-30T07:23:44;102129.17;;;7.62;100.00
49645;BME280;36494;50.730;-1.932;2024-01-30T07:26:10;102128.19;;;7.62;100.00
49645;BME280;36494;50.730;-1.932;2024-01-30T07:28:35;102132.12;;;7.51;100.00
49645;BME280;36494;50.730;-1.932;2024-01-30T07:31:04;102138.60;;;7.61;100.00
49645;BME280;36494;50.730;-1.932;2024-01-30T07:33:26;102142.83;;;7.57;100.00
49645;BME280;36494;50.730;-1.932;2024-01-30T07:35:52;102145.57;;;7.56;100.00
49645;BME280;36494;50.730;-1.932;2024-01-30T07:38:17;102153.75;;;7.63;100.00
49645;BME280;36494;50.730;-1.932;2024-01-30T07:40:42;102159.46;;;7.53;100.00
49645;BME280;36494;50.730;-1.932;2024-01-30T07:43:07;102169.91;;;7.51;100.00
49645;BME280;36494;50.730;-1.932;2024-01-30T07:45:33;102172.75;;;7.59;100.00
49645;BME280;36494;50.730;-1.932;2024-01-30T07:47:59;102174.54;;;7.51;100.00
49645;BME280;36494;50.730;-1.932;2024-01-30T07:50:24;102180.23;;;7.61;100.00
49645;BME280;36494;50.730;-1.932;2024-01-30T07:52:49;102177.81;;;7.57;100.00
49645;BME280;36494;50.730;-1.932;2024-01-30T07:55:15;102183.89;;;7.54;100.00
49645;BME280;36494;50.730;-1.932;2024-01-30T07:57:40;102181.66;;;7.53;100.00
49645;BME280;36494;50.730;-1.932;2024-01-30T08:00:06;102184.86;;;7.58;100.00
49645;BME280;36494;50.730;-1.932;2024-01-30T08:02:31;102190.95;;;7.55;100.00
49645;BME280;36494;50.730;-1.932;2024-01-30T08:04:56;102195.49;;;7.51;100.00
49645;BME280;36494;50.730;-1.932;2024-01-30T08:07:23;102203.65;;;7.61;100.00
49645;BME280;36494;50.730;-1.932;2024-01-30T08:09:47;102205.65;;;7.56;100.00
49645;BME280;36494;50.730;-1.932;2024-01-30T08:12:12;102207.52;;;7.50;100.00
49645;BME280;36494;50.730;-1.932;2024-01-30T08:14:38;102208.88;;;7.48;100.00
49645;BME280;36494;50.730;-1.932;2024-01-30T08:17:03;102213.99;;;7.58;100.00
49645;BME280;36494;50.730;-1.932;2024-01-30T08:19:28;102214.93;;;7.57;100.00
49645;BME280;36494;50.730;-1.932;2024-01-30T08:21:54;102219.33;;;7.54;100.00
49645;BME280;36494;50.730;-1.932;2024-01-30T08:24:19;102222.40;;;7.61;100.00
49645;BME280;36494;50.730;-1.932;2024-01-30T08:26:45;102229.28;;;7.46;100.00
49645;BME280;36494;50.730;-1.932;2024-01-30T08:29:10;102230.57;;;7.51;100.00
49645;BME280;36494;50.730;-1.932;2024-01-30T08:31:35;102235.64;;;7.40;100.00
49645;BME280;36494;50.730;-1.932;2024-01-30T08:34:00;102240.26;;;7.44;100.00
49645;BME280;36494;50.730;-1.932;2024-01-30T08:36:26;102242.42;;;7.48;100.00
49645;BME280;36494;50.730;-1.932;2024-01-30T08:38:51;102245.55;;;7.46;100.00
49645;BME280;36494;50.730;-1.932;2024-01-30T08:41:16;102250.02;;;7.57;100.00
49645;BME280;36494;50.730;-1.932;2024-01-30T08:43:42;102252.48;;;7.46;100.00
49645;BME280;36494;50.730;-1.932;2024-01-30T08:46:07;102254.00;;;7.53;100.00
49645;BME280;36494;50.730;-1.932;2024-01-30T08:48:33;102261.75;;;7.53;100.00
49645;BME280;36494;50.730;-1.932;2024-01-30T08:50:58;102265.03;;;7.57;100.00
49645;BME280;36494;50.730;-1.932;2024-01-30T08:53:24;102271.64;;;7.64;100.00
49645;BME280;36494;50.730;-1.932;2024-01-30T08:55:49;102273.06;;;7.60;100.00
49645;BME280;36494;50.730;-1.932;2024-01-30T08:58:15;102278.08;;;7.59;100.00
49645;BME280;36494;50.730;-1.932;2024-01-30T09:00:40;102280.19;;;7.49;100.00
49645;BME280;36494;50.730;-1.932;2024-01-30T09:03:05;102288.15;;;7.59;100.00
49645;BME280;36494;50.730;-1.932;2024-01-30T09:05:31;102291.98;;;7.60;100.00
49645;BME280;36494;50.730;-1.932;2024-01-30T09:07:58;102299.66;;;7.59;100.00
49645;BME280;36494;50.730;-1.932;2024-01-30T09:10:22;102302.59;;;7.68;100.00
49645;BME280;36494;50.730;-1.932;2024-01-30T09:12:47;102305.38;;;7.69;100.00
49645;BME280;36494;50.730;-1.932;2024-01-30T09:15:13;102313.10;;;7.68;100.00
49645;BME280;36494;50.730;-1.932;2024-01-30T09:17:38;102317.18;;;7.77;100.00
49645;BME280;36494;50.730;-1.932;2024-01-30T09:20:04;102316.40;;;7.73;100.00
49645;BME280;36494;50.730;-1.932;2024-01-30T09:22:28;102316.07;;;7.69;100.00
49645;BME280;36494;50.730;-1.932;2024-01-30T09:24:54;102316.48;;;7.71;100.00
49645;BME280;36494;50.730;-1.932;2024-01-30T09:27:20;102320.94;;;7.80;100.00
49645;BME280;36494;50.730;-1.932;2024-01-30T09:29:45;102326.17;;;7.85;100.00
49645;BME280;36494;50.730;-1.932;2024-01-30T09:32:10;102332.58;;;7.75;100.00
49645;BME280;36494;50.730;-1.932;2024-01-30T09:34:35;102338.38;;;7.72;100.00
49645;BME280;36494;50.730;-1.932;2024-01-30T09:37:01;102344.66;;;7.74;100.00
49645;BME280;36494;50.730;-1.932;2024-01-30T09:39:26;102344.00;;;7.75;100.00
49645;BME280;36494;50.730;-1.932;2024-01-30T09:42:00;102348.15;;;7.79;100.00
49645;BME280;36494;50.730;-1.932;2024-01-30T09:44:17;102356.52;;;7.81;100.00
49645;BME280;36494;50.730;-1.932;2024-01-30T09:46:42;102357.63;;;7.79;100.00
49645;BME280;36494;50.730;-1.932;2024-01-30T09:49:09;102362.18;;;7.86;100.00
49645;BME280;36494;50.730;-1.932;2024-01-30T09:51:34;102370.21;;;7.83;100.00
49645;BME280;36494;50.730;-1.932;2024-01-30T09:53:59;102373.10;;;7.81;100.00
49645;BME280;36494;50.730;-1.932;2024-01-30T09:56:25;102375.05;;;7.79;100.00
49645;BME280;36494;50.730;-1.932;2024-01-30T09:58:50;102380.85;;;7.81;100.00
49645;BME280;36494;50.730;-1.932;2024-01-30T10:01:16;102380.55;;;7.77;100.00
49645;BME280;36494;50.730;-1.932;2024-01-30T10:03:40;102385.68;;;7.77;100.00
49645;BME280;36494;50.730;-1.932;2024-01-30T10:06:08;102385.80;;;7.77;100.00
49645;BME280;36494;50.730;-1.932;2024-01-30T10:08:31;102389.99;;;7.77;100.00
49645;BME280;36494;50.730;-1.932;2024-01-30T10:10:56;102396.90;;;7.76;100.00
49645;BME280;36494;50.730;-1.932;2024-01-30T10:13:21;102401.21;;;7.81;100.00
49645;BME280;36494;50.730;-1.932;2024-01-30T10:15:47;102407.65;;;7.76;100.00
49645;BME280;36494;50.730;-1.932;2024-01-30T10:18:12;102405.51;;;7.77;100.00
49645;BME280;36494;50.730;-1.932;2024-01-30T10:20:37;102405.67;;;7.78;100.00
49645;BME280;36494;50.730;-1.932;2024-01-30T10:23:03;102405.23;;;7.80;100.00
49645;BME280;36494;50.730;-1.932;2024-01-30T10:25:28;102410.53;;;7.78;100.00
49645;BME280;36494;50.730;-1.932;2024-01-30T10:27:53;102420.50;;;7.81;100.00
49645;BME280;36494;50.730;-1.932;2024-01-30T10:30:19;102425.98;;;7.78;100.00
49645;BME280;36494;50.730;-1.932;2024-01-30T10:32:44;102433.11;;;7.87;100.00
49645;BME280;36494;50.730;-1.932;2024-01-30T10:35:09;102435.37;;;7.87;100.00
49645;BME280;36494;50.730;-1.932;2024-01-30T10:37:35;102437.78;;;7.96;100.00
49645;BME280;36494;50.730;-1.932;2024-01-30T10:40:02;102442.17;;;8.05;100.00
49645;BME280;36494;50.730;-1.932;2024-01-30T10:42:26;102447.68;;;8.04;100.00
49645;BME280;36494;50.730;-1.932;2024-01-30T10:44:58;102447.23;;;7.99;100.00
49645;BME280;36494;50.730;-1.932;2024-01-30T10:47:20;102449.81;;;7.97;100.00
49645;BME280;36494;50.730;-1.932;2024-01-30T10:49:41;102456.10;;;7.96;100.00
49645;BME280;36494;50.730;-1.932;2024-01-30T10:52:08;102458.04;;;7.99;100.00
49645;BME280;36494;50.730;-1.932;2024-01-30T10:54:33;102460.41;;;7.97;100.00
49645;BME280;36494;50.730;-1.932;2024-01-30T10:56:59;102467.75;;;8.03;100.00
49645;BME280;36494;50.730;-1.932;2024-01-30T10:59:24;102471.20;;;8.07;100.00
49645;BME280;36494;50.730;-1.932;2024-01-30T11:01:49;102470.96;;;8.11;100.00
49645;BME280;36494;50.730;-1.932;2024-01-30T11:04:14;102477.43;;;8.10;100.00
49645;BME280;36494;50.730;-1.932;2024-01-30T11:06:41;102480.63;;;8.07;100.00
49645;BME280;36494;50.730;-1.932;2024-01-30T11:09:10;102478.02;;;8.09;100.00
49645;BME280;36494;50.730;-1.932;2024-01-30T11:11:31;102477.75;;;8.10;100.00
49645;BME280;36494;50.730;-1.932;2024-01-30T11:14:00;102477.80;;;8.11;100.00
49645;BME280;36494;50.730;-1.932;2024-01-30T11:16:21;102476.69;;;8.13;100.00
49645;BME280;36494;50.730;-1.932;2024-01-30T11:18:50;102473.81;;;8.17;100.00
49645;BME280;36494;50.730;-1.932;2024-01-30T11:21:13;102476.21;;;8.23;100.00
49645;BME280;36494;50.730;-1.932;2024-01-30T11:23:38;102477.87;;;8.29;100.00
49645;BME280;36494;50.730;-1.932;2024-01-30T11:26:04;102475.21;;;8.35;100.00
49645;BME280;36494;50.730;-1.932;2024-01-30T11:28:32;102484.45;;;8.42;100.00
49645;BME280;36494;50.730;-1.932;2024-01-30T11:31:02;102482.93;;;8.38;100.00
49645;BME280;36494;50.730;-1.932;2024-01-30T11:33:28;102481.29;;;8.37;100.00
49645;BME280;36494;50.730;-1.932;2024-01-30T11:35:44;102481.91;;;8.38;100.00
49645;BME280;36494;50.730;-1.932;2024-01-30T11:38:10;102483.12;;;8.49;100.00
49645;BME280;36494;50.730;-1.932;2024-01-30T11:40:36;102484.97;;;8.55;100.00
49645;BME280;36494;50.730;-1.932;2024-01-30T11:43:00;102480.90;;;8.51;100.00
49645;BME280;36494;50.730;-1.932;2024-01-30T11:45:26;102483.56;;;8.49;100.00
49645;BME280;36494;50.730;-1.932;2024-01-30T11:47:50;102491.63;;;8.58;100.00
49645;BME280;36494;50.730;-1.932;2024-01-30T11:50:16;102490.10;;;8.52;100.00
49645;BME280;36494;50.730;-1.932;2024-01-30T11:52:41;102486.68;;;8.50;100.00
49645;BME280;36494;50.730;-1.932;2024-01-30T11:55:09;102479.55;;;8.41;100.00
49645;BME280;36494;50.730;-1.932;2024-01-30T11:57:32;102476.03;;;8.48;100.00
49645;BME280;36494;50.730;-1.932;2024-01-30T11:59:58;102485.33;;;8.57;100.00
49645;BME280;36494;50.730;-1.932;2024-01-30T12:02:23;102483.01;;;8.56;100.00
49645;BME280;36494;50.730;-1.932;2024-01-30T12:04:49;102483.77;;;8.54;100.00
49645;BME280;36494;50.730;-1.932;2024-01-30T12:07:14;102485.07;;;8.63;100.00
49645;BME280;36494;50.730;-1.932;2024-01-30T12:09:40;102483.33;;;8.58;100.00
49645;BME280;36494;50.730;-1.932;2024-01-30T12:12:07;102481.32;;;8.66;100.00
49645;BME280;36494;50.730;-1.932;2024-01-30T12:14:30;102476.93;;;8.61;100.00
49645;BME280;36494;50.730;-1.932;2024-01-30T12:16:55;102479.90;;;8.53;100.00
49645;BME280;36494;50.730;-1.932;2024-01-30T12:19:25;102484.65;;;8.51;100.00
49645;BME280;36494;50.730;-1.932;2024-01-30T12:21:46;102484.33;;;8.55;100.00
49645;BME280;36494;50.730;-1.932;2024-01-30T12:24:11;102486.83;;;8.62;100.00
49645;BME280;36494;50.730;-1.932;2024-01-30T12:26:36;102484.73;;;8.55;100.00
49645;BME280;36494;50.730;-1.932;2024-01-30T12:29:04;102483.93;;;8.66;100.00